createdAt,value
2018-04-04T00:00:10.291Z,98522.95
2018-04-04T00:02:39.620Z,98521.84
2018-04-04T00:05:08.910Z,98522.25
2018-04-04T00:07:38.210Z,98514.80
2018-04-04T00:10:07.548Z,98525.45
2018-04-04T00:12:36.827Z,98516.64
2018-04-04T00:15:05.902Z,98514.19
2018-04-04T00:17:35.874Z,98516.64
2018-04-04T00:20:05.177Z,98512.96
2018-04-04T00:22:34.532Z,98512.71
2018-04-04T00:25:03.922Z,98509.19
2018-04-04T00:27:33.265Z,98506.73
2018-04-04T00:30:02.554Z,98510.14
2018-04-04T00:32:31.856Z,98510.02
2018-04-04T00:35:01.150Z,98503.27
2018-04-04T00:37:30.436Z,98512.30
2018-04-04T00:39:59.841Z,98512.84
2018-04-04T00:42:29.122Z,98510.42
2018-04-04T00:44:58.402Z,98504.08
2018-04-04T00:47:27.515Z,98506.21
2018-04-04T00:49:56.819Z,98508.50
2018-04-04T00:52:26.144Z,98509.48
2018-04-04T00:54:55.440Z,98506.78
2018-04-04T00:57:24.884Z,98508.42
2018-04-04T00:59:54.181Z,98506.37
2018-04-04T01:02:29.007Z,98510.25
2018-04-04T01:04:58.308Z,98515.09
2018-04-04T01:07:27.768Z,98517.77
2018-04-04T01:09:57.043Z,98510.73
2018-04-04T01:12:26.377Z,98517.21
2018-04-04T01:14:55.665Z,98517.62
2018-04-04T01:17:24.955Z,98518.02
2018-04-04T01:19:54.360Z,98521.66
2018-04-04T01:22:23.756Z,98525.30
2018-04-04T01:24:53.046Z,98536.47
2018-04-04T01:27:22.356Z,98538.34
2018-04-04T01:29:51.764Z,98531.98
2018-04-04T01:32:21.243Z,98533.17
2018-04-04T01:34:50.539Z,98522.78
2018-04-04T01:37:19.924Z,98513.75
2018-04-04T01:39:49.293Z,98510.64
2018-04-04T01:42:18.653Z,98511.22
2018-04-04T01:44:47.995Z,98505.37
2018-04-04T01:47:17.273Z,98497.96
2018-04-04T01:49:46.611Z,98497.67
2018-04-04T01:52:15.920Z,98491.34
2018-04-04T01:54:45.211Z,98487.03
2018-04-04T01:57:14.497Z,98476.08
2018-04-04T01:59:43.924Z,98472.80
2018-04-04T02:02:13.203Z,98477.95
2018-04-04T02:04:42.698Z,98468.38
2018-04-04T02:07:12.007Z,98472.03
2018-04-04T02:09:41.301Z,98480.12
2018-04-04T02:12:10.592Z,98487.16
2018-04-04T02:14:40.000Z,98500.78
2018-04-04T02:17:09.383Z,98497.72
2018-04-04T02:19:38.659Z,98497.44
2018-04-04T02:22:07.962Z,98501.53
2018-04-04T02:24:37.446Z,98497.61
2018-04-04T02:27:06.739Z,98495.48
2018-04-04T02:29:36.061Z,98509.39
2018-04-04T02:32:04.942Z,98528.00
2018-04-04T02:34:34.288Z,98523.24
2018-04-04T02:37:03.601Z,98512.28
2018-04-04T02:39:32.881Z,98516.33
2018-04-04T02:42:02.174Z,98510.94
2018-04-04T02:44:31.650Z,98506.64
2018-04-04T02:47:00.965Z,98498.54
2018-04-04T02:49:30.272Z,98501.08
2018-04-04T02:51:59.625Z,98496.25
2018-04-04T02:54:28.950Z,98501.00
2018-04-04T02:56:58.060Z,98501.66
2018-04-04T02:59:27.353Z,98496.54
2018-04-04T03:01:57.413Z,98500.46
2018-04-04T03:04:26.748Z,98500.31
2018-04-04T03:06:56.102Z,98498.54
2018-04-04T03:09:25.397Z,98493.09
2018-04-04T03:11:54.711Z,98488.38
2018-04-04T03:14:24.024Z,98493.70
2018-04-04T03:16:53.509Z,98489.61
2018-04-04T03:19:22.937Z,98486.33
2018-04-04T03:21:52.262Z,98487.39
2018-04-04T03:24:21.896Z,98496.14
2018-04-04T03:26:51.212Z,98504.34
2018-04-04T03:29:20.506Z,98510.67
2018-04-04T03:31:50.072Z,98512.89
2018-04-04T03:34:19.414Z,98522.56
2018-04-04T03:36:48.714Z,98532.70
2018-04-04T03:39:18.036Z,98534.16
2018-04-04T03:41:47.335Z,98526.06
2018-04-04T03:44:16.618Z,98523.25
2018-04-04T03:46:45.982Z,98526.47
2018-04-04T03:49:15.251Z,98522.95
2018-04-04T03:51:44.539Z,98513.81
2018-04-04T03:54:13.889Z,98513.30
2018-04-04T03:56:43.184Z,98515.66
2018-04-04T03:59:12.589Z,98522.17
2018-04-04T04:01:41.872Z,98506.39
2018-04-04T04:04:11.285Z,98503.57
2018-04-04T04:06:40.597Z,98499.77
2018-04-04T04:09:09.889Z,98495.02
2018-04-04T04:11:39.167Z,98518.05
2018-04-04T04:14:08.496Z,98519.09
2018-04-04T04:16:37.793Z,98520.02
2018-04-04T04:19:07.063Z,98523.79
2018-04-04T04:21:36.379Z,98525.01
2018-04-04T04:24:05.662Z,98532.09
2018-04-04T04:26:35.202Z,98526.42
2018-04-04T04:29:04.482Z,98523.01
2018-04-04T04:31:33.795Z,98518.30
2018-04-04T04:34:03.287Z,98518.98
2018-04-04T04:36:32.572Z,98513.92
2018-04-04T04:39:01.986Z,98518.80
2018-04-04T04:41:31.424Z,98509.78
2018-04-04T04:44:00.710Z,98510.36
2018-04-04T04:46:30.024Z,98515.75
2018-04-04T04:48:59.348Z,98506.15
2018-04-04T04:51:28.636Z,98520.86
2018-04-04T04:53:57.954Z,98519.53
2018-04-04T04:56:27.232Z,98527.66
2018-04-04T04:58:56.613Z,98529.27
2018-04-04T05:01:25.914Z,98531.97
2018-04-04T05:03:55.200Z,98524.84
2018-04-04T05:06:24.545Z,98520.39
2018-04-04T05:08:53.822Z,98520.20
2018-04-04T05:11:23.120Z,98520.92
2018-04-04T05:13:52.440Z,98515.13
2018-04-04T05:16:21.551Z,98525.20
2018-04-04T05:18:51.099Z,98531.41
2018-04-04T05:21:20.417Z,98531.30
2018-04-04T05:23:49.800Z,98534.30
2018-04-04T05:26:19.096Z,98528.27
2018-04-04T05:28:48.457Z,98529.10
2018-04-04T05:31:17.732Z,98520.22
2018-04-04T05:33:47.051Z,98522.63
2018-04-04T05:36:16.351Z,98528.91
2018-04-04T05:38:45.627Z,98526.33
2018-04-04T05:41:14.978Z,98536.13
2018-04-04T05:43:44.310Z,98533.97
2018-04-04T05:46:13.604Z,98534.91
2018-04-04T05:48:42.916Z,98547.92
2018-04-04T05:51:12.241Z,98546.17
2018-04-04T05:53:41.542Z,98549.27
2018-04-04T05:56:11.067Z,98548.47
2018-04-04T05:58:40.351Z,98538.48
2018-04-04T06:01:10.116Z,98534.03
2018-04-04T06:03:39.967Z,98528.44
2018-04-04T06:06:09.849Z,98526.86
2018-04-04T06:08:39.762Z,98532.08
2018-04-04T06:11:09.653Z,98531.98
2018-04-04T06:13:39.518Z,98524.18
2018-04-04T06:16:09.603Z,98531.42
2018-04-04T06:18:39.446Z,98527.42
2018-04-04T06:21:09.381Z,98538.67
2018-04-04T06:23:39.271Z,98538.93
2018-04-04T06:26:09.125Z,98535.86
2018-04-04T06:28:39.042Z,98541.96
2018-04-04T06:31:08.892Z,98533.38
2018-04-04T06:33:38.763Z,98534.61
2018-04-04T06:36:08.629Z,98533.79
2018-04-04T06:38:38.487Z,98531.67
2018-04-04T06:41:08.357Z,98517.91
2018-04-04T06:43:38.304Z,98517.54
2018-04-04T06:46:08.272Z,98524.99
2018-04-04T06:48:38.118Z,98498.54
2018-04-04T06:51:07.966Z,98496.28
2018-04-04T06:53:37.828Z,98489.52
2018-04-04T06:56:07.677Z,98492.79
2018-04-04T06:58:37.587Z,98499.33
2018-04-04T07:01:07.909Z,98510.83
2018-04-04T07:03:37.844Z,98527.48
2018-04-04T07:06:07.693Z,98533.51
2018-04-04T07:08:37.563Z,98537.73
2018-04-04T07:11:07.449Z,98533.58
2018-04-04T07:13:37.091Z,98528.96
2018-04-04T07:16:07.041Z,98515.13
2018-04-04T07:18:36.996Z,98507.55
2018-04-04T07:21:06.932Z,98504.88
2018-04-04T07:23:36.789Z,98492.76
2018-04-04T07:26:06.824Z,98497.75
2018-04-04T07:28:36.467Z,98492.52
2018-04-04T07:31:06.448Z,98493.45
2018-04-04T07:33:36.358Z,98502.13
2018-04-04T07:36:06.778Z,98501.06
2018-04-04T07:38:36.819Z,98515.66
2018-04-04T07:41:06.668Z,98510.70
2018-04-04T07:43:36.302Z,98512.47
2018-04-04T07:46:06.152Z,98505.04
2018-04-04T07:48:36.064Z,98517.22
2018-04-04T07:51:05.919Z,98517.75
2018-04-04T07:53:35.804Z,98523.71
2018-04-04T07:56:05.651Z,98521.30
2018-04-04T07:58:35.263Z,98505.16
2018-04-04T08:01:04.815Z,98502.47
2018-04-04T08:03:34.668Z,98492.98
2018-04-04T08:06:04.548Z,98483.91
2018-04-04T08:08:34.194Z,98494.61
2018-04-04T08:11:03.828Z,98500.69
2018-04-04T08:13:33.847Z,98494.76
2018-04-04T08:16:03.696Z,98499.47
2018-04-04T08:18:33.271Z,98503.00
2018-04-04T08:21:03.438Z,98511.11
2018-04-04T08:23:32.982Z,98508.41
2018-04-04T08:26:02.569Z,98502.56
2018-04-04T08:28:32.131Z,98509.59
2018-04-04T08:31:01.715Z,98509.42
2018-04-04T08:33:31.365Z,98504.43
2018-04-04T08:36:00.931Z,98498.97
2018-04-04T08:38:30.494Z,98503.03
2018-04-04T08:41:00.095Z,98509.63
2018-04-04T08:43:29.663Z,98508.80
2018-04-04T08:45:59.230Z,98509.55
2018-04-04T08:48:28.748Z,98517.88
2018-04-04T08:50:58.299Z,98517.92
2018-04-04T08:53:27.864Z,98514.45
2018-04-04T08:55:59.510Z,98510.17
2018-04-04T08:58:28.971Z,98505.20
2018-04-04T09:00:58.367Z,98507.81
2018-04-04T09:03:27.991Z,98501.23
2018-04-04T09:05:57.546Z,98492.10
2018-04-04T09:08:27.330Z,98500.46
2018-04-04T09:10:56.908Z,98504.94
2018-04-04T09:13:26.464Z,98495.05
2018-04-04T09:15:56.015Z,98488.70
2018-04-04T09:18:25.714Z,98488.75
2018-04-04T09:20:55.471Z,98496.23
2018-04-04T09:23:25.057Z,98503.34
2018-04-04T09:25:54.609Z,98509.05
2018-04-04T09:28:24.221Z,98497.63
2018-04-04T09:30:53.800Z,98491.16
2018-04-04T09:33:23.548Z,98491.37
2018-04-04T09:35:53.141Z,98493.94
2018-04-04T09:38:22.731Z,98482.57
2018-04-04T09:40:52.338Z,98485.81
2018-04-04T09:43:22.139Z,98480.22
2018-04-04T09:45:51.516Z,98477.94
2018-04-04T09:48:21.093Z,98477.53
2018-04-04T09:50:50.644Z,98480.66
2018-04-04T09:53:20.235Z,98478.56
2018-04-04T09:55:49.816Z,98469.59
2018-04-04T09:58:19.372Z,98471.92
2018-04-04T10:00:48.742Z,98471.80
2018-04-04T10:03:18.308Z,98476.84
2018-04-04T10:05:47.859Z,98473.79
2018-04-04T10:08:17.579Z,98474.13
2018-04-04T10:10:47.133Z,98469.02
2018-04-04T10:13:16.725Z,98470.84
2018-04-04T10:15:46.303Z,98469.30
2018-04-04T10:18:15.927Z,98464.64
2018-04-04T10:20:45.500Z,98464.37
2018-04-04T10:23:15.047Z,98462.98
2018-04-04T10:25:44.629Z,98472.83
2018-04-04T10:28:14.195Z,98471.88
2018-04-04T10:30:43.956Z,98478.85
2018-04-04T10:33:13.685Z,98475.15
2018-04-04T10:35:43.512Z,98476.98
2018-04-04T10:38:13.069Z,98474.08
2018-04-04T10:40:42.684Z,98470.02
2018-04-04T10:43:12.244Z,98473.92
2018-04-04T10:45:41.972Z,98469.34
2018-04-04T10:48:11.545Z,98466.05
2018-04-04T10:50:41.247Z,98454.45
2018-04-04T10:53:11.684Z,98462.98
2018-04-04T10:55:41.258Z,98457.72
2018-04-04T10:58:10.907Z,98465.38
2018-04-04T11:00:40.494Z,98456.46
2018-04-04T11:03:10.051Z,98449.29
2018-04-04T11:05:39.617Z,98452.77
2018-04-04T11:08:09.534Z,98455.72
2018-04-04T11:10:39.256Z,98451.48
2018-04-04T11:13:08.952Z,98450.02
2018-04-04T11:15:38.521Z,98444.77
2018-04-04T11:18:08.196Z,98450.30
2018-04-04T11:20:37.929Z,98456.28
2018-04-04T11:23:07.505Z,98450.20
2018-04-04T11:25:37.094Z,98445.52
2018-04-04T11:28:06.642Z,98445.39
2018-04-04T11:30:36.209Z,98444.89
2018-04-04T11:33:05.917Z,98440.55
2018-04-04T11:35:35.546Z,98437.95
2018-04-04T11:38:05.128Z,98438.30
2018-04-04T11:40:34.763Z,98435.47
2018-04-04T11:43:04.311Z,98434.20
2018-04-04T11:45:34.023Z,98435.11
2018-04-04T11:48:03.602Z,98428.98
2018-04-04T11:50:33.151Z,98430.14
2018-04-04T11:53:02.877Z,98428.02
2018-04-04T11:55:34.156Z,98424.69
2018-04-04T11:58:03.729Z,98421.53
2018-04-04T12:00:33.347Z,98418.31
2018-04-04T12:03:03.129Z,98412.66
2018-04-04T12:05:32.814Z,98409.02
2018-04-04T12:08:02.369Z,98406.89
2018-04-04T12:10:32.074Z,98403.84
2018-04-04T12:13:01.675Z,98402.09
2018-04-04T12:15:31.284Z,98395.22
2018-04-04T12:18:00.981Z,98396.55
2018-04-04T12:20:30.556Z,98390.47
2018-04-04T12:23:00.126Z,98393.90
2018-04-04T12:25:29.700Z,98394.76
2018-04-04T12:27:59.296Z,98392.67
2018-04-04T12:30:28.956Z,98396.33
2018-04-04T12:32:58.520Z,98397.05
2018-04-04T12:35:28.078Z,98396.95
2018-04-04T12:37:57.830Z,98397.91
2018-04-04T12:40:27.450Z,98397.90
2018-04-04T12:42:57.084Z,98397.92
2018-04-04T12:45:26.627Z,98394.84
2018-04-04T12:47:56.195Z,98387.59
2018-04-04T12:50:25.776Z,98386.31
2018-04-04T12:52:55.698Z,98383.30
2018-04-04T12:55:25.461Z,98387.17
2018-04-04T12:57:55.211Z,98384.87
2018-04-04T13:00:24.783Z,98379.59
2018-04-04T13:02:54.348Z,98377.87
2018-04-04T13:05:23.927Z,98382.88
2018-04-04T13:07:53.196Z,98384.75
2018-04-04T13:10:22.466Z,98372.30
2018-04-04T13:12:51.795Z,98375.15
2018-04-04T13:15:21.422Z,98376.80
2018-04-04T13:17:51.189Z,98376.97
2018-04-04T13:20:20.944Z,98375.33
2018-04-04T13:22:50.533Z,98369.93
2018-04-04T13:25:20.092Z,98366.47
2018-04-04T13:27:49.669Z,98361.78
2018-04-04T13:30:19.212Z,98360.50
2018-04-04T13:32:48.809Z,98358.59
2018-04-04T13:35:18.371Z,98355.45
2018-04-04T13:37:48.053Z,98353.42
2018-04-04T13:40:17.721Z,98348.89
2018-04-04T13:42:47.272Z,98346.08
2018-04-04T13:45:18.680Z,98348.25
2018-04-04T13:47:48.236Z,98344.19
2018-04-04T13:50:17.793Z,98335.45
2018-04-04T13:52:47.429Z,98337.34
2018-04-04T13:55:16.977Z,98333.91
2018-04-04T13:57:46.592Z,98331.89
2018-04-04T14:00:16.408Z,98329.94
2018-04-04T14:02:45.738Z,98329.36
2018-04-04T14:05:15.500Z,98332.69
2018-04-04T14:07:45.116Z,98322.38
2018-04-04T14:10:14.677Z,98320.98
2018-04-04T14:12:44.228Z,98325.28
2018-04-04T14:15:13.816Z,98328.70
2018-04-04T14:17:43.521Z,98326.78
2018-04-04T14:20:13.099Z,98314.77
2018-04-04T14:22:42.702Z,98314.86
2018-04-04T14:25:11.945Z,98314.02
2018-04-04T14:27:41.703Z,98314.83
2018-04-04T14:30:11.264Z,98316.78
2018-04-04T14:32:40.814Z,98310.63
2018-04-04T14:35:10.421Z,98314.13
2018-04-04T14:37:40.053Z,98315.33
2018-04-04T14:40:09.658Z,98306.41
2018-04-04T14:42:39.262Z,98299.59
2018-04-04T14:45:08.834Z,98288.73
2018-04-04T14:47:38.408Z,98279.42
2018-04-04T14:50:07.982Z,98285.28
2018-04-04T14:52:37.565Z,98280.03
2018-04-04T14:55:07.930Z,98286.06
2018-04-04T14:57:37.544Z,98282.06
2018-04-04T15:00:07.083Z,98282.35
2018-04-04T15:02:36.418Z,98276.44
2018-04-04T15:05:05.980Z,98273.86
2018-04-04T15:07:35.564Z,98268.03
2018-04-04T15:10:05.137Z,98275.64
2018-04-04T15:12:34.693Z,98269.39
2018-04-04T15:15:04.334Z,98271.22
2018-04-04T15:17:33.891Z,98271.31
2018-04-04T15:20:03.224Z,98269.83
2018-04-04T15:22:32.956Z,98272.36
2018-04-04T15:25:02.767Z,98268.56
2018-04-04T15:27:32.323Z,98262.22
2018-04-04T15:30:01.901Z,98255.87
2018-04-04T15:32:31.463Z,98247.44
2018-04-04T15:35:01.056Z,98238.19
2018-04-04T15:37:30.624Z,98238.95
2018-04-04T15:40:00.168Z,98241.83
2018-04-04T15:42:29.754Z,98237.38
2018-04-04T15:44:59.150Z,98236.05
2018-04-04T15:47:28.725Z,98234.22
2018-04-04T15:49:58.270Z,98232.58
2018-04-04T15:52:27.838Z,98239.05
2018-04-04T15:54:57.400Z,98240.37
2018-04-04T15:57:26.980Z,98233.41
2018-04-04T15:59:56.555Z,98239.88
2018-04-04T16:02:26.128Z,98241.25
2018-04-04T16:04:55.698Z,98237.09
2018-04-04T16:07:25.201Z,98228.87
2018-04-04T16:09:54.872Z,98226.94
2018-04-04T16:12:24.432Z,98229.55
2018-04-04T16:14:54.016Z,98231.06
2018-04-04T16:17:23.775Z,98234.20
2018-04-04T16:19:53.468Z,98229.42
2018-04-04T16:22:23.087Z,98234.61
2018-04-04T16:24:52.631Z,98230.70
2018-04-04T16:27:22.187Z,98232.75
2018-04-04T16:29:51.780Z,98236.23
2018-04-04T16:32:21.337Z,98227.72
2018-04-04T16:34:50.904Z,98224.02
2018-04-04T16:37:20.484Z,98224.56
2018-04-04T16:39:50.044Z,98222.06
2018-04-04T16:42:19.601Z,98220.28
2018-04-04T16:44:49.219Z,98213.42
2018-04-04T16:47:18.768Z,98219.22
2018-04-04T16:49:48.339Z,98212.20
2018-04-04T16:52:17.898Z,98203.67
2018-04-04T16:54:47.436Z,98200.31
2018-04-04T16:57:17.044Z,98193.50
2018-04-04T16:59:46.597Z,98188.34
2018-04-04T17:02:16.180Z,98184.55
2018-04-04T17:04:45.715Z,98189.80
2018-04-04T17:07:15.270Z,98191.77
2018-04-04T17:09:44.914Z,98194.81
2018-04-04T17:12:14.477Z,98190.16
2018-04-04T17:14:44.040Z,98189.41
2018-04-04T17:17:13.595Z,98191.27
2018-04-04T17:19:43.738Z,98188.16
2018-04-04T17:22:13.276Z,98188.58
2018-04-04T17:24:43.066Z,98186.12
2018-04-04T17:27:12.837Z,98197.80
2018-04-04T17:29:42.639Z,98200.41
2018-04-04T17:32:12.092Z,98204.41
2018-04-04T17:34:41.634Z,98209.59
2018-04-04T17:37:11.193Z,98201.85
2018-04-04T17:39:40.776Z,98196.91
2018-04-04T17:42:10.194Z,98201.27
2018-04-04T17:44:39.779Z,98200.94
2018-04-04T17:47:09.369Z,98197.57
2018-04-04T17:49:38.919Z,98208.58
2018-04-04T17:52:08.469Z,98225.77
2018-04-04T17:54:38.116Z,98226.39
2018-04-04T17:57:07.861Z,98228.32
2018-04-04T17:59:37.598Z,98223.81
2018-04-04T18:02:07.698Z,98225.64
2018-04-04T18:04:37.285Z,98226.30
2018-04-04T18:07:07.045Z,98216.57
2018-04-04T18:09:36.776Z,98212.98
2018-04-04T18:12:06.351Z,98220.55
2018-04-04T18:14:36.189Z,98220.03
2018-04-04T18:17:05.755Z,98220.84
2018-04-04T18:19:35.359Z,98215.11
2018-04-04T18:22:05.223Z,98224.17
2018-04-04T18:24:34.776Z,98229.84
2018-04-04T18:27:04.539Z,98223.84
2018-04-04T18:29:34.251Z,98225.05
2018-04-04T18:32:03.814Z,98225.96
2018-04-04T18:34:33.372Z,98221.78
2018-04-04T18:37:02.728Z,98226.19
2018-04-04T18:39:32.339Z,98230.66
2018-04-04T18:42:01.918Z,98232.70
2018-04-04T18:44:31.506Z,98237.78
2018-04-04T18:47:01.078Z,98226.16
2018-04-04T18:49:30.677Z,98224.38
2018-04-04T18:52:00.480Z,98228.66
2018-04-04T18:54:30.041Z,98231.02
2018-04-04T18:56:59.645Z,98242.91
2018-04-04T18:59:29.200Z,98239.20
2018-04-04T19:01:58.810Z,98240.70
2018-04-04T19:04:28.382Z,98246.45
2018-04-04T19:06:58.023Z,98238.22
2018-04-04T19:09:27.767Z,98238.23
2018-04-04T19:11:57.380Z,98242.53
2018-04-04T19:14:26.927Z,98248.41
2018-04-04T19:16:56.535Z,98252.28
2018-04-04T19:19:26.070Z,98252.20
2018-04-04T19:21:55.697Z,98251.88
2018-04-04T19:24:25.235Z,98251.24
2018-04-04T19:26:54.823Z,98256.55
2018-04-04T19:29:24.438Z,98255.64
2018-04-04T19:31:53.980Z,98252.94
2018-04-04T19:34:23.538Z,98249.17
2018-04-04T19:36:53.298Z,98254.61
2018-04-04T19:39:22.848Z,98252.75
2018-04-04T19:41:52.428Z,98246.78
2018-04-04T19:44:22.011Z,98249.40
2018-04-04T19:46:51.639Z,98242.38
2018-04-04T19:49:21.239Z,98235.88
2018-04-04T19:51:50.941Z,98237.77
2018-04-04T19:54:20.491Z,98235.91
2018-04-04T19:56:50.033Z,98235.69
2018-04-04T19:59:19.607Z,98240.03
2018-04-04T20:01:49.150Z,98249.57
2018-04-04T20:04:18.699Z,98252.56
2018-04-04T20:06:48.280Z,98253.99
2018-04-04T20:09:17.838Z,98260.24
2018-04-04T20:11:47.396Z,98259.33
2018-04-04T20:14:16.956Z,98253.67
2018-04-04T20:16:46.316Z,98255.30
2018-04-04T20:19:15.885Z,98252.35
2018-04-04T20:21:45.446Z,98261.04
2018-04-04T20:24:14.996Z,98260.80
2018-04-04T20:26:44.580Z,98268.03
2018-04-04T20:29:14.146Z,98265.32
2018-04-04T20:31:43.718Z,98267.39
2018-04-04T20:34:13.286Z,98265.08
2018-04-04T20:36:43.263Z,98260.44
2018-04-04T20:39:13.181Z,98249.89
2018-04-04T20:41:42.539Z,98246.39
2018-04-04T20:44:12.297Z,98245.72
2018-04-04T20:46:41.996Z,98246.67
2018-04-04T20:49:11.630Z,98253.89
2018-04-04T20:51:41.182Z,98255.42
2018-04-04T20:54:10.744Z,98250.84
2018-04-04T20:56:40.366Z,98250.70
2018-04-04T20:59:09.912Z,98244.06
2018-04-04T21:01:39.468Z,98251.66
2018-04-04T21:04:09.044Z,98264.98
2018-04-04T21:06:38.940Z,98263.52
2018-04-04T21:09:08.499Z,98260.78
2018-04-04T21:11:38.070Z,98264.72
2018-04-04T21:14:07.653Z,98273.16
2018-04-04T21:16:37.231Z,98262.17
2018-04-04T21:19:07.028Z,98260.58
2018-04-04T21:21:36.612Z,98265.05
2018-04-04T21:24:06.164Z,98264.64
2018-04-04T21:26:35.722Z,98261.42
2018-04-04T21:29:05.318Z,98259.01
2018-04-04T21:31:34.940Z,98271.08
2018-04-04T21:34:04.498Z,98276.27
2018-04-04T21:36:34.072Z,98278.84
2018-04-04T21:39:03.192Z,98285.48
2018-04-04T21:41:32.757Z,98283.98
2018-04-04T21:44:02.307Z,98288.05
2018-04-04T21:46:32.076Z,98292.05
2018-04-04T21:49:01.420Z,98304.68
2018-04-04T21:51:30.771Z,98310.51
2018-04-04T21:54:00.157Z,98318.11
2018-04-04T21:56:29.696Z,98319.74
2018-04-04T21:58:59.255Z,98321.42
2018-04-04T22:01:28.848Z,98328.87
2018-04-04T22:03:58.405Z,98336.61
2018-04-04T22:06:28.012Z,98342.84
2018-04-04T22:08:57.655Z,98343.94
2018-04-04T22:11:27.338Z,98350.84
2018-04-04T22:13:56.957Z,98350.21
2018-04-04T22:16:26.496Z,98347.49
2018-04-04T22:18:56.041Z,98352.02
2018-04-04T22:21:25.718Z,98357.02
2018-04-04T22:23:55.316Z,98351.34
2018-04-04T22:26:24.927Z,98350.55
2018-04-04T22:28:54.528Z,98369.39
2018-04-04T22:31:24.256Z,98391.38
2018-04-04T22:33:54.092Z,98393.97
2018-04-04T22:36:23.648Z,98405.79
2018-04-04T22:38:53.244Z,98425.95
2018-04-04T22:41:22.811Z,98429.63
2018-04-04T22:43:52.434Z,98420.56
2018-04-04T22:46:22.842Z,98424.48
2018-04-04T22:48:52.180Z,98425.56
2018-04-04T22:51:21.733Z,98419.46
2018-04-04T22:53:51.611Z,98428.01
2018-04-04T22:56:21.221Z,98433.67
2018-04-04T22:58:50.775Z,98427.19
2018-04-04T23:01:20.406Z,98438.68
2018-04-04T23:03:50.109Z,98437.44
2018-04-04T23:06:19.748Z,98436.63
2018-04-04T23:08:49.075Z,98438.80
2018-04-04T23:11:18.615Z,98439.63
2018-04-04T23:13:48.192Z,98425.80
2018-04-04T23:16:17.744Z,98421.33
2018-04-04T23:18:47.290Z,98421.30
2018-04-04T23:21:17.148Z,98424.62
2018-04-04T23:23:47.146Z,98423.61
2018-04-04T23:26:16.735Z,98419.46
2018-04-04T23:28:46.466Z,98414.31
2018-04-04T23:31:16.024Z,98417.36
2018-04-04T23:33:45.605Z,98425.70
2018-04-04T23:36:15.193Z,98429.72
2018-04-04T23:38:44.750Z,98441.91
2018-04-04T23:41:14.329Z,98450.56
2018-04-04T23:43:43.691Z,98459.44
2018-04-04T23:46:13.151Z,98465.82
2018-04-04T23:48:43.147Z,98461.05
2018-04-04T23:51:12.772Z,98458.30
2018-04-04T23:53:42.096Z,98466.97
2018-04-04T23:56:11.764Z,98467.83
2018-04-04T23:58:41.312Z,98452.09
